createdAt,value
2022-12-18T00:01:26.424Z,102766.44
2022-12-18T00:03:54.867Z,102755.41
2022-12-18T00:06:23.139Z,102756.34
2022-12-18T00:08:50.240Z,102752.91
2022-12-18T00:11:19.411Z,102749.13
2022-12-18T00:13:47.133Z,102743.97
2022-12-18T00:16:19.412Z,102749.53
2022-12-18T00:18:47.579Z,102740.47
2022-12-18T00:21:15.783Z,102736.50
2022-12-18T00:23:44.858Z,102741.41
2022-12-18T00:26:17.860Z,102734.94
2022-12-18T00:28:45.827Z,102748.06
2022-12-18T00:31:19.373Z,102741.22
2022-12-18T00:33:46.655Z,102738.19
2022-12-18T00:36:19.258Z,102735.88
2022-12-18T00:38:47.343Z,102725.97
2022-12-18T00:41:36.945Z,102739.84
2022-12-18T00:44:05.024Z,102726.34
2022-12-18T00:46:33.101Z,102723.63
2022-12-18T00:49:00.170Z,102736.63
2022-12-18T00:51:27.625Z,102750.34
2022-12-18T00:53:54.673Z,102736.06
2022-12-18T00:56:25.174Z,102738.81
2022-12-18T00:58:52.190Z,102729.66
2022-12-18T01:01:19.532Z,102739.22
2022-12-18T01:03:47.548Z,102728.75
2022-12-18T01:06:16.894Z,102732.03
2022-12-18T01:08:44.561Z,102727.88
2022-12-18T01:11:14.642Z,102705.03
2022-12-18T01:13:42.025Z,102723.22
2022-12-18T01:16:11.753Z,102726.66
2022-12-18T01:18:39.170Z,102727.22
2022-12-18T01:21:11.035Z,102720.72
2022-12-18T01:23:39.043Z,102727.59
2022-12-18T01:26:08.670Z,102737.31
2022-12-18T01:28:39.335Z,102749.38
2022-12-18T01:31:20.758Z,102750.81
2022-12-18T01:33:48.111Z,102738.94
2022-12-18T01:36:27.226Z,102742.69
2022-12-18T01:38:55.472Z,102744.91
2022-12-18T01:41:48.875Z,102738.56
2022-12-18T01:45:03.806Z,102749.50
2022-12-18T01:47:40.728Z,102758.16
2022-12-18T01:50:29.617Z,102756.38
2022-12-18T01:53:07.114Z,102749.50
2022-12-18T01:55:41.316Z,102741.25
2022-12-18T01:58:08.435Z,102757.28
2022-12-18T02:00:36.657Z,102756.00
2022-12-18T02:03:03.926Z,102748.81
2022-12-18T02:05:45.014Z,102754.75
2022-12-18T02:08:21.771Z,102751.75
2022-12-18T02:11:08.044Z,102770.13
2022-12-18T02:14:12.199Z,102772.47
2022-12-18T02:16:54.453Z,102762.59
2022-12-18T02:19:47.558Z,102747.13
2022-12-18T02:22:39.688Z,102764.41
2022-12-18T02:25:25.047Z,102760.81
2022-12-18T02:27:55.548Z,102760.13
2022-12-18T02:30:23.210Z,102760.50
2022-12-18T02:32:53.861Z,102776.88
2022-12-18T02:35:25.091Z,102768.22
2022-12-18T02:37:53.955Z,102753.66
2022-12-18T02:40:24.473Z,102759.25
2022-12-18T02:42:51.476Z,102748.44
2022-12-18T02:45:19.215Z,102745.00
2022-12-18T02:47:49.363Z,102752.06
2022-12-18T02:50:34.379Z,102754.38
2022-12-18T02:53:15.543Z,102744.69
2022-12-18T02:55:48.245Z,102742.00
2022-12-18T02:58:21.811Z,102736.94
2022-12-18T03:01:12.985Z,102734.63
2022-12-18T03:04:08.539Z,102724.34
2022-12-18T03:06:42.647Z,102726.50
2022-12-18T03:09:15.772Z,102732.13
2022-12-18T03:12:07.256Z,102725.66
2022-12-18T03:14:38.351Z,102722.25
2022-12-18T03:17:10.075Z,102722.78
2022-12-18T03:19:40.207Z,102703.72
2022-12-18T03:22:08.724Z,102721.53
2022-12-18T03:24:39.981Z,102715.06
2022-12-18T03:27:12.475Z,102710.75
2022-12-18T03:29:45.479Z,102714.88
2022-12-18T03:32:21.440Z,102697.09
2022-12-18T03:34:52.255Z,102705.69
2022-12-18T03:37:19.489Z,102703.53
2022-12-18T03:39:46.597Z,102691.84
2022-12-18T03:42:21.573Z,102682.31
2022-12-18T03:45:02.894Z,102695.44
2022-12-18T03:47:47.932Z,102687.88
2022-12-18T03:50:23.091Z,102689.53
2022-12-18T03:53:03.168Z,102682.88
2022-12-18T03:55:33.694Z,102687.91
2022-12-18T03:58:04.410Z,102694.38
2022-12-18T04:00:32.788Z,102659.31
2022-12-18T04:03:02.313Z,102686.09
2022-12-18T04:05:30.787Z,102675.31
2022-12-18T04:07:58.695Z,102675.31
2022-12-18T04:10:25.707Z,102681.59
2022-12-18T04:12:57.326Z,102683.97
2022-12-18T04:15:24.747Z,102677.47
2022-12-18T04:17:51.888Z,102669.91
2022-12-18T04:20:18.988Z,102667.59
2022-12-18T04:22:46.005Z,102659.50
2022-12-18T04:25:13.789Z,102664.53
2022-12-18T04:27:41.075Z,102651.94
2022-12-18T04:30:09.166Z,102655.88
2022-12-18T04:32:40.956Z,102656.59
2022-12-18T04:35:11.477Z,102635.22
2022-12-18T04:37:38.594Z,102653.94
2022-12-18T04:40:07.663Z,102660.94
2022-12-18T04:42:35.091Z,102657.53
2022-12-18T04:45:02.813Z,102645.13
2022-12-18T04:47:29.945Z,102671.41
2022-12-18T04:49:57.056Z,102672.47
2022-12-18T04:52:27.074Z,102675.69
2022-12-18T04:54:54.064Z,102658.78
2022-12-18T04:57:21.139Z,102690.66
2022-12-18T04:59:48.339Z,102687.97
2022-12-18T05:02:15.424Z,102697.88
2022-12-18T05:04:42.505Z,102698.38
2022-12-18T05:07:09.582Z,102698.59
2022-12-18T05:09:39.785Z,102715.66
2022-12-18T05:12:07.623Z,102692.09
2022-12-18T05:14:34.691Z,102725.75
2022-12-18T05:17:01.742Z,102727.00
2022-12-18T05:19:28.810Z,102714.94
2022-12-18T05:21:55.944Z,102714.41
2022-12-18T05:24:22.993Z,102696.94
2022-12-18T05:26:50.203Z,102715.84
2022-12-18T05:29:17.289Z,102739.59
2022-12-18T05:31:44.633Z,102721.25
2022-12-18T05:34:12.266Z,102737.63
2022-12-18T05:36:40.006Z,102726.44
2022-12-18T05:39:08.017Z,102721.25
2022-12-18T05:41:35.769Z,102723.22
2022-12-18T05:44:02.807Z,102722.69
2022-12-18T05:46:30.909Z,102714.94
2022-12-18T05:49:02.066Z,102719.06
2022-12-18T05:51:29.268Z,102716.38
2022-12-18T05:53:56.469Z,102715.13
2022-12-18T05:56:24.235Z,102711.69
2022-12-18T05:58:55.378Z,102705.75
2022-12-18T06:01:27.420Z,102693.00
2022-12-18T06:03:56.236Z,102697.28
2022-12-18T06:06:25.538Z,102701.28
2022-12-18T06:08:53.405Z,102703.25
2022-12-18T06:11:23.617Z,102693.88
2022-12-18T06:13:58.175Z,102689.72
2022-12-18T06:16:26.491Z,102675.00
2022-12-18T06:18:53.777Z,102676.44
2022-12-18T06:21:21.028Z,102654.13
2022-12-18T06:23:48.282Z,102690.81
2022-12-18T06:26:16.237Z,102691.53
2022-12-18T06:28:43.420Z,102691.75
2022-12-18T06:31:11.245Z,102666.91
2022-12-18T06:33:39.929Z,102669.97
2022-12-18T06:36:13.172Z,102658.47
2022-12-18T06:38:43.161Z,102667.44
2022-12-18T06:41:11.317Z,102656.28
2022-12-18T06:43:39.035Z,102651.25
2022-12-18T06:46:07.835Z,102661.16
2022-12-18T06:48:36.116Z,102654.16
2022-12-18T06:51:03.768Z,102648.94
2022-12-18T06:53:30.845Z,102650.53
2022-12-18T06:56:10.337Z,102641.19
2022-12-18T06:58:38.976Z,102619.59
2022-12-18T07:01:11.360Z,102638.50
2022-12-18T07:03:41.484Z,102626.78
2022-12-18T07:06:18.690Z,102633.28
2022-12-18T07:08:47.253Z,102634.00
2022-12-18T07:11:14.634Z,102623.94
2022-12-18T07:13:42.514Z,102605.22
2022-12-18T07:16:22.353Z,102598.75
2022-12-18T07:18:51.669Z,102600.72
2022-12-18T07:21:20.561Z,102620.31
2022-12-18T07:23:49.037Z,102619.22
2022-12-18T07:26:19.351Z,102614.56
2022-12-18T07:28:46.526Z,102626.78
2022-12-18T07:31:16.694Z,102630.22
2022-12-18T07:33:44.866Z,102616.72
2022-12-18T07:36:12.544Z,102594.44
2022-12-18T07:38:40.994Z,102555.97
2022-12-18T07:41:13.251Z,102591.00
2022-12-18T07:43:42.616Z,102575.91
2022-12-18T07:46:11.118Z,102597.66
2022-12-18T07:48:41.679Z,102589.03
2022-12-18T07:51:09.244Z,102546.63
2022-12-18T07:53:37.899Z,102579.31
2022-12-18T07:56:28.256Z,102576.81
2022-12-18T07:58:56.834Z,102557.38
2022-12-18T08:01:24.449Z,102560.97
2022-12-18T08:03:52.157Z,102550.75
2022-12-18T08:06:22.530Z,102564.56
2022-12-18T08:08:53.475Z,102557.72
2022-12-18T08:11:20.710Z,102551.75
2022-12-18T08:13:48.688Z,102547.47
2022-12-18T08:16:17.192Z,102542.22
2022-12-18T08:18:44.358Z,102545.78
2022-12-18T08:21:17.726Z,102552.59
2022-12-18T08:23:46.135Z,102550.78
2022-12-18T08:26:14.211Z,102560.66
2022-12-18T08:28:41.899Z,102563.88
2022-12-18T08:31:10.097Z,102552.72
2022-12-18T08:33:39.490Z,102563.63
2022-12-18T08:36:07.640Z,102538.47
2022-12-18T08:38:35.552Z,102568.25
2022-12-18T08:41:08.406Z,102571.59
2022-12-18T08:43:55.081Z,102571.22
2022-12-18T08:46:24.812Z,102563.41
2022-12-18T08:48:52.795Z,102578.31
2022-12-18T08:51:20.486Z,102570.56
2022-12-18T08:53:48.327Z,102574.66
2022-12-18T08:56:15.644Z,102565.13
2022-12-18T08:58:42.822Z,102573.16
2022-12-18T09:01:12.847Z,102567.75
2022-12-18T09:03:41.536Z,102576.16
2022-12-18T09:06:10.086Z,102577.31
2022-12-18T09:08:40.558Z,102583.22
2022-12-18T09:11:14.594Z,102581.53
2022-12-18T09:13:42.240Z,102560.03
2022-12-18T09:16:10.191Z,102555.69
2022-12-18T09:18:37.589Z,102549.66
2022-12-18T09:21:14.748Z,102553.03
2022-12-18T09:23:42.126Z,102550.22
2022-12-18T09:26:09.505Z,102553.09
2022-12-18T09:28:37.505Z,102558.22
2022-12-18T09:31:08.641Z,102571.72
2022-12-18T09:33:37.473Z,102567.47
2022-12-18T09:36:07.600Z,102567.97
2022-12-18T09:38:35.870Z,102566.66
2022-12-18T09:41:31.980Z,102543.03
2022-12-18T09:44:04.066Z,102549.94
2022-12-18T09:46:44.854Z,102542.84
2022-12-18T09:49:19.296Z,102537.56
2022-12-18T09:51:51.902Z,102531.91
2022-12-18T09:54:27.628Z,102530.25
2022-12-18T09:56:55.167Z,102538.97
2022-12-18T09:59:30.813Z,102522.81
2022-12-18T10:01:58.103Z,102508.28
2022-12-18T10:04:29.893Z,102513.97
2022-12-18T10:07:20.220Z,102502.38
2022-12-18T10:10:14.497Z,102478.25
2022-12-18T10:13:04.055Z,102495.59
2022-12-18T10:16:05.725Z,102510.56
2022-12-18T10:18:51.722Z,102516.25
2022-12-18T10:21:44.355Z,102513.28
2022-12-18T10:24:40.952Z,102507.94
2022-12-18T10:27:22.420Z,102500.09
2022-12-18T10:29:49.914Z,102501.59
2022-12-18T10:32:23.512Z,102503.56
2022-12-18T10:34:58.185Z,102501.78
2022-12-18T10:37:29.401Z,102495.38
2022-12-18T10:40:11.902Z,102492.13
2022-12-18T10:42:43.035Z,102481.97
2022-12-18T10:45:16.340Z,102496.31
2022-12-18T10:47:49.453Z,102494.81
2022-12-18T10:50:20.416Z,102495.28
2022-12-18T10:52:58.188Z,102488.59
2022-12-18T10:55:32.261Z,102482.00
2022-12-18T10:58:26.446Z,102478.31
2022-12-18T11:01:02.792Z,102473.53
2022-12-18T11:03:37.463Z,102460.00
2022-12-18T11:06:09.295Z,102473.41
2022-12-18T11:08:40.466Z,102457.78
2022-12-18T11:11:24.902Z,102456.44
2022-12-18T11:14:00.734Z,102454.19
2022-12-18T11:16:29.377Z,102438.88
2022-12-18T11:19:38.800Z,102444.09
2022-12-18T11:22:19.893Z,102429.16
2022-12-18T11:25:30.918Z,102431.88
2022-12-18T11:27:52.308Z,102416.50
2022-12-18T11:30:31.524Z,102419.94
2022-12-18T11:33:16.727Z,102422.03
2022-12-18T11:35:54.625Z,102426.03
2022-12-18T11:38:26.165Z,102428.28
2022-12-18T11:41:00.318Z,102429.03
2022-12-18T11:43:32.467Z,102422.91
2022-12-18T11:46:07.210Z,102432.78
2022-12-18T11:48:42.519Z,102425.75
2022-12-18T11:51:15.661Z,102420.69
2022-12-18T11:53:42.788Z,102410.81
2022-12-18T11:56:33.059Z,102407.38
2022-12-18T11:59:37.722Z,102398.44
2022-12-18T12:02:37.250Z,102394.69
2022-12-18T12:05:22.738Z,102393.94
2022-12-18T12:07:58.712Z,102394.06
2022-12-18T12:10:50.175Z,102387.38
2022-12-18T12:13:56.171Z,102377.22
2022-12-18T12:17:11.226Z,102366.34
2022-12-18T12:20:33.528Z,102365.59
2022-12-18T12:23:08.246Z,102361.25
2022-12-18T12:25:45.557Z,102357.50
2022-12-18T12:28:37.756Z,102357.81
2022-12-18T12:31:16.866Z,102349.44
2022-12-18T12:34:19.445Z,102323.53
2022-12-18T12:37:02.056Z,102351.66
2022-12-18T12:39:33.547Z,102342.41
2022-12-18T12:42:21.247Z,102337.03
2022-12-18T12:44:56.343Z,102338.50
2022-12-18T12:47:31.709Z,102333.88
2022-12-18T12:50:02.456Z,102319.81
2022-12-18T12:52:56.687Z,102312.38
2022-12-18T12:55:26.205Z,102323.38
2022-12-18T12:58:00.112Z,102308.75
2022-12-18T13:00:31.365Z,102317.41
2022-12-18T13:02:58.916Z,102311.84
2022-12-18T13:05:57.359Z,102306.78
2022-12-18T13:08:31.189Z,102306.03
2022-12-18T13:11:53.671Z,102310.66
2022-12-18T13:14:38.248Z,102305.00
2022-12-18T13:17:21.226Z,102310.66
2022-12-18T13:20:15.416Z,102317.03
2022-12-18T13:22:49.638Z,102318.06
2022-12-18T13:25:33.324Z,102311.22
2022-12-18T13:28:10.070Z,102310.47
2022-12-18T13:30:37.032Z,102305.38
2022-12-18T13:33:17.398Z,102304.47
2022-12-18T13:35:47.746Z,102296.09
2022-12-18T13:38:27.133Z,102301.34
2022-12-18T13:40:56.230Z,102295.50
2022-12-18T13:43:23.250Z,102284.47
2022-12-18T13:46:07.276Z,102277.72
2022-12-18T13:48:39.154Z,102275.06
2022-12-18T13:51:11.952Z,102256.66
2022-12-18T13:54:02.667Z,102247.41
2022-12-18T13:56:40.314Z,102237.47
2022-12-18T13:59:15.059Z,102253.50
2022-12-18T14:01:55.308Z,102253.50
2022-12-18T14:04:28.722Z,102244.13
2022-12-18T14:07:13.979Z,102238.00
2022-12-18T14:09:46.255Z,102231.16
2022-12-18T14:12:41.047Z,102241.09
2022-12-18T14:15:18.702Z,102230.53
2022-12-18T14:17:45.801Z,102201.34
2022-12-18T14:20:16.666Z,102221.66
2022-12-18T14:22:49.371Z,102213.28
2022-12-18T14:25:24.054Z,102215.72
2022-12-18T14:28:15.136Z,102206.63
2022-12-18T14:30:45.227Z,102204.19
2022-12-18T14:33:27.383Z,102200.75
2022-12-18T14:36:07.107Z,102196.56
2022-12-18T14:38:40.080Z,102185.53
2022-12-18T14:41:15.192Z,102188.94
2022-12-18T14:43:45.046Z,102192.25
2022-12-18T14:46:37.106Z,102198.34
2022-12-18T14:49:30.155Z,102197.44
2022-12-18T14:51:58.698Z,102178.91
2022-12-18T14:54:27.785Z,102167.34
2022-12-18T14:57:23.719Z,102174.47
2022-12-18T14:59:51.965Z,102176.38
2022-12-18T15:02:28.654Z,102176.38
2022-12-18T15:05:13.091Z,102171.47
2022-12-18T15:07:45.743Z,102180.56
2022-12-18T15:10:17.850Z,102172.22
2022-12-18T15:12:57.966Z,102177.91
2022-12-18T15:15:34.141Z,102174.88
2022-12-18T15:18:02.694Z,102171.47
2022-12-18T15:20:33.626Z,102167.88
2022-12-18T15:23:00.750Z,102163.69
2022-12-18T15:25:33.991Z,102168.00
2022-12-18T15:28:01.234Z,102169.69
2022-12-18T15:30:28.581Z,102166.09
2022-12-18T15:33:24.498Z,102167.75
2022-12-18T15:36:21.328Z,102169.38
2022-12-18T15:38:55.123Z,102162.81
2022-12-18T15:41:24.876Z,102147.50
2022-12-18T15:43:53.722Z,102169.38
2022-12-18T15:46:23.917Z,102169.13
2022-12-18T15:48:56.678Z,102174.47
2022-12-18T15:51:33.086Z,102162.06
2022-12-18T15:54:07.135Z,102163.69
2022-12-18T15:56:52.588Z,102153.53
2022-12-18T15:59:21.611Z,102149.47
2022-12-18T16:01:53.065Z,102146.94
2022-12-18T16:04:21.865Z,102134.38
2022-12-18T16:09:37.696Z,102100.19
2022-12-18T16:12:07.210Z,102123.22
2022-12-18T16:14:37.056Z,102112.78
2022-12-18T16:17:10.293Z,102106.19
2022-12-18T16:19:37.294Z,102093.50
2022-12-18T16:22:04.368Z,102108.38
2022-12-18T16:24:34.226Z,102094.38
2022-12-18T16:27:01.512Z,102101.38
2022-12-18T16:29:29.854Z,102090.47
2022-12-18T16:31:58.652Z,102080.19
2022-12-18T16:34:29.284Z,102081.81
2022-12-18T16:37:06.529Z,102065.28
2022-12-18T16:39:36.553Z,102063.28
2022-12-18T16:42:07.368Z,102064.19
2022-12-18T16:44:35.697Z,102067.59
2022-12-18T16:47:03.863Z,102067.47
2022-12-18T16:49:31.109Z,102064.31
2022-12-18T16:51:58.327Z,102050.47
2022-12-18T16:54:25.544Z,102053.63
2022-12-18T16:56:52.696Z,102055.41
2022-12-18T16:59:19.921Z,102059.13
2022-12-18T17:01:47.231Z,102052.88
2022-12-18T17:04:14.995Z,102033.78
2022-12-18T17:06:44.777Z,102054.16
2022-12-18T17:09:15.499Z,102050.88
2022-12-18T17:11:43.738Z,102067.25
2022-12-18T17:14:16.107Z,102064.59
2022-12-18T17:16:43.617Z,102060.50
2022-12-18T17:19:16.852Z,102062.81
2022-12-18T17:21:48.235Z,102058.47
2022-12-18T17:24:15.992Z,102063.06
2022-12-18T17:26:44.365Z,102051.75
2022-12-18T17:29:17.212Z,102052.78
2022-12-18T17:31:47.099Z,102050.34
2022-12-18T17:34:14.891Z,102046.06
2022-12-18T17:36:43.238Z,102052.78
2022-12-18T17:39:17.424Z,102042.97
2022-12-18T17:41:44.496Z,102050.13
2022-12-18T17:44:11.808Z,102052.91
2022-12-18T17:46:39.832Z,102048.59
2022-12-18T17:49:07.516Z,102044.13
2022-12-18T17:51:35.704Z,102037.41
2022-12-18T17:54:02.784Z,102049.19
2022-12-18T17:56:29.942Z,102032.91
2022-12-18T17:58:57.709Z,102033.94
2022-12-18T18:01:25.901Z,102042.50
2022-12-18T18:03:55.955Z,102052.16
2022-12-18T18:06:23.820Z,102048.84
2022-12-18T18:08:51.926Z,102042.75
2022-12-18T18:11:39.793Z,102048.84
2022-12-18T18:14:19.476Z,102055.59
2022-12-18T18:16:49.269Z,102051.00
2022-12-18T18:19:19.067Z,102051.63
2022-12-18T18:21:48.742Z,102057.09
2022-12-18T18:24:19.143Z,102054.56
2022-12-18T18:26:47.089Z,102045.66
2022-12-18T18:29:19.809Z,102050.34
2022-12-18T18:31:47.870Z,102044.69
2022-12-18T18:34:20.824Z,102039.72
2022-12-18T18:36:48.062Z,102044.06
2022-12-18T18:39:15.509Z,102024.22
2022-12-18T18:41:45.414Z,102032.75
2022-12-18T18:44:16.571Z,102038.34
2022-12-18T18:46:45.082Z,102041.28
2022-12-18T18:49:13.797Z,102030.22
2022-12-18T18:51:42.209Z,102024.88
2022-12-18T18:54:09.977Z,102032.00
2022-12-18T18:57:04.131Z,102018.91
2022-12-18T18:59:30.296Z,102017.38
2022-12-18T19:02:00.698Z,102015.88
2022-12-18T19:04:33.749Z,102012.81
2022-12-18T19:07:01.237Z,102021.75
2022-12-18T19:09:29.370Z,102018.81
2022-12-18T19:12:15.480Z,102012.22
2022-12-18T19:14:43.666Z,102013.25
2022-12-18T19:17:11.085Z,102014.00
2022-12-18T19:19:39.041Z,102012.34
2022-12-18T19:22:07.574Z,102008.16
2022-12-18T19:24:36.506Z,102008.41
2022-12-18T19:27:03.537Z,101997.38
2022-12-18T19:29:30.705Z,102002.97
2022-12-18T19:31:57.886Z,102004.00
2022-12-18T19:34:25.064Z,102004.47
2022-12-18T19:36:56.537Z,102014.91
2022-12-18T19:39:26.836Z,102017.44
2022-12-18T19:41:54.620Z,102014.28
2022-12-18T19:44:21.871Z,102009.81
2022-12-18T19:46:51.953Z,102012.75
2022-12-18T19:49:19.046Z,102025.84
2022-12-18T19:51:46.213Z,102020.00
2022-12-18T19:54:17.082Z,102012.63
2022-12-18T19:56:46.029Z,102019.50
2022-12-18T19:59:13.488Z,102013.66
2022-12-18T20:01:41.618Z,102010.47
2022-12-18T20:04:09.163Z,102006.31
2022-12-18T20:06:49.023Z,102000.94
2022-12-18T20:09:17.176Z,101992.56
2022-12-18T20:11:45.049Z,101980.09
2022-12-18T20:14:13.901Z,101993.84
2022-12-18T20:16:41.619Z,101996.88
2022-12-18T20:19:11.267Z,101996.59
2022-12-18T20:21:38.564Z,101992.16
2022-12-18T20:24:08.967Z,101998.16
2022-12-18T20:26:41.141Z,101983.91
2022-12-18T20:29:08.349Z,101993.56
2022-12-18T20:31:35.711Z,102000.31
2022-12-18T20:34:03.776Z,101996.63
2022-12-18T20:36:37.638Z,102001.06
2022-12-18T20:39:09.831Z,101995.84
2022-12-18T20:41:38.991Z,101977.69
2022-12-18T20:44:23.476Z,101990.50
2022-12-18T20:47:08.721Z,101990.50
2022-12-18T20:49:49.379Z,101967.50
2022-12-18T20:52:16.379Z,101979.19
2022-12-18T20:54:45.143Z,101984.28
2022-12-18T20:57:19.860Z,101974.75
2022-12-18T20:59:48.436Z,101966.22
2022-12-18T21:02:16.601Z,101959.13
2022-12-18T21:04:43.958Z,101964.31
2022-12-18T21:07:11.215Z,101951.38
2022-12-18T21:09:38.761Z,101948.19
2022-12-18T21:12:35.163Z,101923.03
2022-12-18T21:15:10.026Z,101915.03
2022-12-18T21:17:39.440Z,101934.34
2022-12-18T21:20:17.271Z,101923.56
2022-12-18T21:22:44.972Z,101922.41
2022-12-18T21:25:12.382Z,101927.50
2022-12-18T21:27:39.615Z,101924.84
2022-12-18T21:30:07.644Z,101922.13
2022-12-18T21:32:35.587Z,101907.69
2022-12-18T21:35:02.695Z,101912.13
2022-12-18T21:37:29.776Z,101897.13
2022-12-18T21:39:56.762Z,101893.06
2022-12-18T21:42:42.988Z,101904.25
2022-12-18T21:45:12.197Z,101901.31
2022-12-18T21:47:40.122Z,101902.97
2022-12-18T21:50:07.565Z,101893.72
2022-12-18T21:52:35.633Z,101899.81
2022-12-18T21:55:09.044Z,101893.81
2022-12-18T21:57:40.178Z,101897.63
2022-12-18T22:00:18.408Z,101875.94
2022-12-18T22:02:47.419Z,101900.31
2022-12-18T22:05:14.707Z,101865.91
2022-12-18T22:07:41.776Z,101861.69
2022-12-18T22:10:09.181Z,101869.19
2022-12-18T22:12:43.429Z,101862.31
2022-12-18T22:15:21.501Z,101869.56
2022-12-18T22:17:50.591Z,101869.81
2022-12-18T22:20:19.952Z,101863.75
2022-12-18T22:22:48.574Z,101866.28
2022-12-18T22:25:15.687Z,101833.88
2022-12-18T22:27:43.019Z,101837.69
2022-12-18T22:30:14.418Z,101831.09
2022-12-18T22:32:41.807Z,101820.28
2022-12-18T22:35:14.284Z,101807.44
2022-12-18T22:37:42.959Z,101809.34
2022-12-18T22:40:23.718Z,101786.72
2022-12-18T22:42:51.780Z,101780.38
2022-12-18T22:45:20.296Z,101767.03
2022-12-18T22:47:47.334Z,101768.16
2022-12-18T22:50:14.929Z,101771.25
2022-12-18T22:52:42.542Z,101762.72
2022-12-18T22:55:10.153Z,101766.38
2022-12-18T22:57:37.529Z,101770.44
2022-12-18T23:00:10.313Z,101768.91
2022-12-18T23:02:37.593Z,101766.63
2022-12-18T23:05:08.530Z,101762.19
2022-12-18T23:07:36.632Z,101758.25
2022-12-18T23:10:04.112Z,101744.53
2022-12-18T23:12:31.163Z,101733.72
2022-12-18T23:14:59.974Z,101720.00
2022-12-18T23:17:26.995Z,101721.13
2022-12-18T23:19:54.084Z,101697.91
2022-12-18T23:22:21.154Z,101692.84
2022-12-18T23:24:48.180Z,101705.38
2022-12-18T23:27:15.193Z,101722.13
2022-12-18T23:29:42.437Z,101720.50
2022-12-18T23:32:10.567Z,101718.84
2022-12-18T23:34:37.683Z,101707.66
2022-12-18T23:37:06.198Z,101716.28
2022-12-18T23:39:33.336Z,101707.91
2022-12-18T23:42:00.592Z,101699.50
2022-12-18T23:44:28.217Z,101677.50
2022-12-18T23:46:55.582Z,101673.56
2022-12-18T23:49:22.917Z,101667.59
2022-12-18T23:51:50.445Z,101671.91
2022-12-18T23:54:17.640Z,101675.34
2022-12-18T23:56:49.785Z,101674.31
2022-12-18T23:59:19.356Z,101680.53
